Indiscretion — WS4594 — position and weather

sailwx.info

Track history (hours):
 
Tides and Currents Weather Stations Pressure Air Temp Water Temp Dewpoint Dewpoint Depression Visibility Wind Speed Wind Dir Waves Ship Positions

Indiscretion

Owner: SHERMAN, DONALD, ENGLEWOOD CLIFFS, NJ. More information available from US FCC via Universal Licensing System and Coast Guard Vessel Documentation Center.

Last reported at 2016-May-25 17:33 UTC. Time now 2016-May-26 22:37 UTC.
Position N 41°08' W 072°30'.

Length 35 m; draft 2 m.

Type: Pleasure craft. MMSI: 338127553.

Date/timePositionNaut miles runAvg speedWind from/ knotsBaromVisibWave heightAir tempDewpointWater temp
2016-May-25 17:33N 41°08' W 072°30'7214.4
2016-May-25 12:33N 40°42' W 073°59'1212.0
2016-May-25 11:33N 40°30' W 073°58'1915.2
2016-May-25 10:19N 40°12' W 073°57'1215.5
2016-May-25 09:33N 40°00' W 073°59'1515.4
2016-May-25 08:33N 39°45' W 074°03'1515.1
2016-May-25 07:33N 39°31' W 074°12'3015.0
2016-May-25 05:31N 39°09' W 074°38'1515.5
2016-May-25 04:33N 38°56' W 074°49'1515.5
2016-May-25 03:33N 38°43' W 074°59'1615.6
2016-May-25 02:33N 38°28' W 074°60'10314.8
2016-May-24 19:33N 36°58' W 076°03'1411.9
2016-May-24 18:24N 36°55' W 076°20'7 8.2
2016-May-24 17:33N 36°48' W 076°17'5 5.4
2016-May-24 16:33N 36°43' W 076°15'3 2.8
2016-May-24 15:33N 36°43' W 076°11'5 5.3
2016-May-24 14:34N 36°43' W 076°05'7 7.2
2016-May-24 13:33N 36°36' W 076°03'9 9.2
2016-May-24 12:33N 36°27' W 075°58'6 6.4
2016-May-24 11:34N 36°21' W 075°57'0 0.0
2016-May-24 10:33N 36°21' W 075°57'0 0.0
2016-May-24 09:33N 36°21' W 075°57'0 0.0
2016-May-24 08:33N 36°21' W 075°57'0 0.0
2016-May-24 07:33N 36°21' W 075°57'0 0.0
2016-May-24 06:33N 36°21' W 075°57'0 0.0
2016-May-24 05:33N 36°21' W 075°57'0 0.0
2016-May-24 04:33N 36°21' W 075°57'0 0.0
2016-May-24 03:34N 36°21' W 075°57'0 0.0
2016-May-24 02:33N 36°21' W 075°57'0 0.0
2016-May-24 01:33N 36°21' W 075°57'0 0.0
2016-May-24 00:33N 36°21' W 075°57'0 0.0
2016-May-23 23:33N 36°21' W 075°57'0 0.0
2016-May-23 22:33N 36°21' W 075°57'0 0.0
2016-May-23 21:33N 36°21' W 075°57'0 0.0
2016-May-23 20:33N 36°21' W 075°57'80 8.0
2016-May-23 10:32N 35°06' W 076°31'4 3.5
2016-May-23 09:22N 35°05' W 076°36'0 0.0
2016-May-23 08:33N 35°05' W 076°36'0 0.0
2016-May-23 07:29N 35°05' W 076°36'0 0.0
2016-May-23 06:33N 35°05' W 076°36'0 0.0
2016-May-23 05:20N 35°05' W 076°36'0 0.0
2016-May-22 16:31N 35°05' W 076°36'0 0.0
2016-May-22 12:33N 35°05' W 076°36'0 0.0
2016-May-22 11:04N 35°05' W 076°36'0 0.0
2016-May-22 10:27N 35°05' W 076°36'0 0.0
2016-May-22 09:28N 35°05' W 076°36'0 0.0
2016-May-22 08:26N 35°05' W 076°36'0 0.0
2016-May-22 07:18N 35°05' W 076°36'0 0.0
2016-May-22 06:33N 35°05' W 076°36'0 0.0
2016-May-22 05:32N 35°05' W 076°36'0 0.0
2016-May-22 04:29N 35°05' W 076°36'0 0.0
2016-May-22 03:21N 35°05' W 076°36'0 0.0
2016-May-22 02:32N 35°05' W 076°36'0 0.0
2016-May-22 01:32N 35°05' W 076°36'0 0.0
2016-May-22 00:28N 35°05' W 076°36'0 0.0
2016-May-21 15:19N 35°05' W 076°36'0 0.0
2016-May-21 14:30N 35°05' W 076°36'0 0.0
2016-May-21 13:22N 35°05' W 076°36'0 0.0
2016-May-21 12:30N 35°05' W 076°36'0 0.0
2016-May-21 10:04N 35°05' W 076°36'0 0.0
2016-May-20 13:27N 35°05' W 076°36'0 0.0
2016-May-20 12:33N 35°05' W 076°36'0 0.0
2016-May-20 11:33N 35°05' W 076°36'0 0.0
2016-May-20 10:33N 35°05' W 076°36'0 0.0
2016-May-20 09:33N 35°05' W 076°36'0 0.0
2016-May-20 08:32N 35°05' W 076°36'0 0.0
2016-May-20 07:26N 35°05' W 076°36'0 0.0
2016-May-20 06:31N 35°05' W 076°36'0 0.0
2016-May-20 05:25N 35°05' W 076°36'0 0.0
2016-May-20 04:31N 35°05' W 076°36'0 0.0
2016-May-20 03:25N 35°05' W 076°36'0 0.0
2016-May-19 17:18N 35°05' W 076°36'0 0.0
2016-May-19 13:08N 35°05' W 076°36'0 0.0
2016-May-19 12:24N 35°05' W 076°36'0 0.0
2016-May-19 11:30N 35°05' W 076°36'0 0.0
2016-May-19 10:32N 35°05' W 076°36'0 0.0
2016-May-19 09:32N 35°05' W 076°36'0 0.0
2016-May-19 08:33N 35°05' W 076°36'0 0.0
2016-May-19 07:33N 35°05' W 076°36'0 0.0
2016-May-19 06:28N 35°05' W 076°36'0 0.0
2016-May-19 05:31N 35°05' W 076°36'0 0.0
2016-May-19 04:29N 35°05' W 076°36'0 0.0
2016-May-18 20:14N 35°05' W 076°36'0 0.0
2016-May-18 19:24N 35°05' W 076°36'0 0.0
2016-May-18 08:24N 35°05' W 076°36'0 0.0
2016-May-18 07:32N 35°05' W 076°36'0 0.0
2016-May-18 06:33N 35°05' W 076°36'0 0.0
2016-May-18 03:31N 35°05' W 076°36'0 0.0
2016-May-17 13:07N 35°05' W 076°36'0 0.0
2016-May-17 12:32N 35°05' W 076°36'0 0.0
2016-May-17 11:32N 35°05' W 076°36'0 0.0
2016-May-17 10:33N 35°05' W 076°36'0 0.0
2016-May-17 09:33N 35°05' W 076°36'0 0.0
2016-May-17 08:33N 35°05' W 076°36'0 0.0
2016-May-17 07:29N 35°05' W 076°36'0 0.0
2016-May-17 06:30N 35°05' W 076°36'0 0.0
2016-May-17 05:32N 35°05' W 076°36'0 0.0
2016-May-16 12:04N 35°05' W 076°36'0 0.0
2016-May-16 10:33N 35°05' W 076°36'0 0.0
2016-May-16 09:28N 35°05' W 076°36'0 0.0
2016-May-16 08:33N 35°05' W 076°36'0 0.0
2016-May-16 07:32N 35°05' W 076°36'0 0.0
2016-May-16 06:33N 35°05' W 076°36'0 0.0
2016-May-16 05:31N 35°05' W 076°36'0 0.0
2016-May-16 04:30N 35°05' W 076°36'0 0.0
2016-May-16 03:32N 35°05' W 076°36'0 0.0
2016-May-16 02:33N 35°05' W 076°36'0 0.0
2016-May-16 00:14N 35°05' W 076°36'  
Track history (hours):
 
Tides and Currents Weather Stations Pressure Air Temp Water Temp Dewpoint Dewpoint Depression Visibility Wind Speed Wind Dir Waves Ship Positions

Indiscretion

Owner: SHERMAN, DONALD, ENGLEWOOD CLIFFS, NJ. More information available from US FCC via Universal Licensing System and Coast Guard Vessel Documentation Center.

Last reported at 2016-May-25 17:33 UTC. Time now 2016-May-26 22:37 UTC.
Position N 41°08' W 072°30'.

Length 35 m; draft 2 m.

Type: Pleasure craft. MMSI: 338127553.

Date/timePositionNaut miles runAvg speedWind from/ knotsBaromVisibWave heightAir tempDewpointWater temp
2016-May-25 17:33N 41°08' W 072°30'7214.4
2016-May-25 12:33N 40°42' W 073°59'1212.0
2016-May-25 11:33N 40°30' W 073°58'1915.2
2016-May-25 10:19N 40°12' W 073°57'1215.5
2016-May-25 09:33N 40°00' W 073°59'1515.4
2016-May-25 08:33N 39°45' W 074°03'1515.1
2016-May-25 07:33N 39°31' W 074°12'3015.0
2016-May-25 05:31N 39°09' W 074°38'1515.5
2016-May-25 04:33N 38°56' W 074°49'1515.5
2016-May-25 03:33N 38°43' W 074°59'1615.6
2016-May-25 02:33N 38°28' W 074°60'10314.8
2016-May-24 19:33N 36°58' W 076°03'1411.9
2016-May-24 18:24N 36°55' W 076°20'7 8.2
2016-May-24 17:33N 36°48' W 076°17'5 5.4
2016-May-24 16:33N 36°43' W 076°15'3 2.8
2016-May-24 15:33N 36°43' W 076°11'5 5.3
2016-May-24 14:34N 36°43' W 076°05'7 7.2
2016-May-24 13:33N 36°36' W 076°03'9 9.2
2016-May-24 12:33N 36°27' W 075°58'6 6.4
2016-May-24 11:34N 36°21' W 075°57'0 0.0
2016-May-24 10:33N 36°21' W 075°57'0 0.0
2016-May-24 09:33N 36°21' W 075°57'0 0.0
2016-May-24 08:33N 36°21' W 075°57'0 0.0
2016-May-24 07:33N 36°21' W 075°57'0 0.0
2016-May-24 06:33N 36°21' W 075°57'0 0.0
2016-May-24 05:33N 36°21' W 075°57'0 0.0
2016-May-24 04:33N 36°21' W 075°57'0 0.0
2016-May-24 03:34N 36°21' W 075°57'0 0.0
2016-May-24 02:33N 36°21' W 075°57'0 0.0
2016-May-24 01:33N 36°21' W 075°57'0 0.0
2016-May-24 00:33N 36°21' W 075°57'0 0.0
2016-May-23 23:33N 36°21' W 075°57'0 0.0
2016-May-23 22:33N 36°21' W 075°57'0 0.0
2016-May-23 21:33N 36°21' W 075°57'0 0.0
2016-May-23 20:33N 36°21' W 075°57'80 8.0
2016-May-23 10:32N 35°06' W 076°31'4 3.5
2016-May-23 09:22N 35°05' W 076°36'0 0.0
2016-May-23 08:33N 35°05' W 076°36'0 0.0
2016-May-23 07:29N 35°05' W 076°36'0 0.0
2016-May-23 06:33N 35°05' W 076°36'0 0.0
2016-May-23 05:20N 35°05' W 076°36'0 0.0
2016-May-22 16:31N 35°05' W 076°36'0 0.0
2016-May-22 12:33N 35°05' W 076°36'0 0.0
2016-May-22 11:04N 35°05' W 076°36'0 0.0
2016-May-22 10:27N 35°05' W 076°36'0 0.0
2016-May-22 09:28N 35°05' W 076°36'0 0.0
2016-May-22 08:26N 35°05' W 076°36'0 0.0
2016-May-22 07:18N 35°05' W 076°36'0 0.0
2016-May-22 06:33N 35°05' W 076°36'0 0.0
2016-May-22 05:32N 35°05' W 076°36'0 0.0
2016-May-22 04:29N 35°05' W 076°36'0 0.0
2016-May-22 03:21N 35°05' W 076°36'0 0.0
2016-May-22 02:32N 35°05' W 076°36'0 0.0
2016-May-22 01:32N 35°05' W 076°36'0 0.0
2016-May-22 00:28N 35°05' W 076°36'0 0.0
2016-May-21 15:19N 35°05' W 076°36'0 0.0
2016-May-21 14:30N 35°05' W 076°36'0 0.0
2016-May-21 13:22N 35°05' W 076°36'0 0.0
2016-May-21 12:30N 35°05' W 076°36'0 0.0
2016-May-21 10:04N 35°05' W 076°36'0 0.0
2016-May-20 13:27N 35°05' W 076°36'0 0.0
2016-May-20 12:33N 35°05' W 076°36'0 0.0
2016-May-20 11:33N 35°05' W 076°36'0 0.0
2016-May-20 10:33N 35°05' W 076°36'0 0.0
2016-May-20 09:33N 35°05' W 076°36'0 0.0
2016-May-20 08:32N 35°05' W 076°36'0 0.0
2016-May-20 07:26N 35°05' W 076°36'0 0.0
2016-May-20 06:31N 35°05' W 076°36'0 0.0
2016-May-20 05:25N 35°05' W 076°36'0 0.0
2016-May-20 04:31N 35°05' W 076°36'0 0.0
2016-May-20 03:25N 35°05' W 076°36'0 0.0
2016-May-19 17:18N 35°05' W 076°36'0 0.0
2016-May-19 13:08N 35°05' W 076°36'0 0.0
2016-May-19 12:24N 35°05' W 076°36'0 0.0
2016-May-19 11:30N 35°05' W 076°36'0 0.0
2016-May-19 10:32N 35°05' W 076°36'0 0.0
2016-May-19 09:32N 35°05' W 076°36'0 0.0
2016-May-19 08:33N 35°05' W 076°36'0 0.0
2016-May-19 07:33N 35°05' W 076°36'0 0.0
2016-May-19 06:28N 35°05' W 076°36'0 0.0
2016-May-19 05:31N 35°05' W 076°36'0 0.0
2016-May-19 04:29N 35°05' W 076°36'0 0.0
2016-May-18 20:14N 35°05' W 076°36'0 0.0
2016-May-18 19:24N 35°05' W 076°36'0 0.0
2016-May-18 08:24N 35°05' W 076°36'0 0.0
2016-May-18 07:32N 35°05' W 076°36'0 0.0
2016-May-18 06:33N 35°05' W 076°36'0 0.0
2016-May-18 03:31N 35°05' W 076°36'0 0.0
2016-May-17 13:07N 35°05' W 076°36'0 0.0
2016-May-17 12:32N 35°05' W 076°36'0 0.0
2016-May-17 11:32N 35°05' W 076°36'0 0.0
2016-May-17 10:33N 35°05' W 076°36'0 0.0
2016-May-17 09:33N 35°05' W 076°36'0 0.0
2016-May-17 08:33N 35°05' W 076°36'0 0.0
2016-May-17 07:29N 35°05' W 076°36'0 0.0
2016-May-17 06:30N 35°05' W 076°36'0 0.0
2016-May-17 05:32N 35°05' W 076°36'0 0.0
2016-May-16 12:04N 35°05' W 076°36'0 0.0
2016-May-16 10:33N 35°05' W 076°36'0 0.0
2016-May-16 09:28N 35°05' W 076°36'0 0.0
2016-May-16 08:33N 35°05' W 076°36'0 0.0
2016-May-16 07:32N 35°05' W 076°36'0 0.0
2016-May-16 06:33N 35°05' W 076°36'0 0.0
2016-May-16 05:31N 35°05' W 076°36'0 0.0
2016-May-16 04:30N 35°05' W 076°36'0 0.0
2016-May-16 03:32N 35°05' W 076°36'0 0.0
2016-May-16 02:33N 35°05' W 076°36'0 0.0
2016-May-16 00:14N 35°05' W 076°36'  

Dump ship's entire track history